createdAt,value
2022-12-08T00:00:54.891Z,77.44
2022-12-08T00:03:25.415Z,77.76
2022-12-08T00:06:15.461Z,77.58
2022-12-08T00:09:05.679Z,77.31
2022-12-08T00:11:35.808Z,77.16
2022-12-08T00:14:06.085Z,77.15
2022-12-08T00:16:36.350Z,77.11
2022-12-08T00:19:06.912Z,77.43
2022-12-08T00:21:36.959Z,76.97
2022-12-08T00:24:07.377Z,76.99
2022-12-08T00:26:38.727Z,76.62
2022-12-08T00:29:14.452Z,77.22
2022-12-08T00:31:48.410Z,76.72
2022-12-08T00:34:18.944Z,76.91
2022-12-08T00:36:49.353Z,76.70
2022-12-08T00:39:19.795Z,76.84
2022-12-08T00:42:09.800Z,76.63
2022-12-08T00:44:40.774Z,77.23
2022-12-08T00:47:11.013Z,76.87
2022-12-08T00:49:41.223Z,77.00
2022-12-08T00:52:13.077Z,76.27
2022-12-08T00:54:43.019Z,76.69
2022-12-08T00:57:14.693Z,77.36
2022-12-08T00:59:44.730Z,76.58
2022-12-08T01:02:15.275Z,77.04
2022-12-08T01:04:45.708Z,76.74
2022-12-08T01:07:14.714Z,76.83
2022-12-08T01:09:45.966Z,76.65
2022-12-08T01:12:15.783Z,76.80
2022-12-08T01:14:45.957Z,76.89
2022-12-08T01:17:15.730Z,76.85
2022-12-08T01:19:46.623Z,77.01
2022-12-08T01:22:16.943Z,76.40
2022-12-08T01:24:47.435Z,76.76
2022-12-08T01:27:17.277Z,76.89
2022-12-08T01:29:48.151Z,76.72
2022-12-08T01:32:18.044Z,76.93
2022-12-08T01:34:48.517Z,76.64
2022-12-08T01:37:18.920Z,76.67
2022-12-08T01:39:49.008Z,76.61
2022-12-08T01:42:23.662Z,76.81
2022-12-08T01:45:04.727Z,76.35
2022-12-08T01:47:45.913Z,76.43
2022-12-08T01:50:18.516Z,76.88
2022-12-08T01:52:56.008Z,75.80
2022-12-08T01:55:29.514Z,76.58
2022-12-08T01:58:12.952Z,76.38
2022-12-08T02:00:43.900Z,76.43
2022-12-08T02:03:20.613Z,76.52
2022-12-08T02:05:53.290Z,76.81
2022-12-08T02:08:24.695Z,76.42
2022-12-08T02:10:55.192Z,76.93
2022-12-08T02:13:26.359Z,76.84
2022-12-08T02:16:19.364Z,77.35
2022-12-08T02:19:29.126Z,76.97
2022-12-08T02:22:11.689Z,77.03
2022-12-08T02:24:46.626Z,76.68
2022-12-08T02:27:26.626Z,76.41
2022-12-08T02:30:11.875Z,76.24
2022-12-08T02:32:52.080Z,76.50
2022-12-08T02:35:40.908Z,76.65
2022-12-08T02:38:24.019Z,76.76
2022-12-08T02:41:17.270Z,77.38
2022-12-08T02:44:17.004Z,76.93
2022-12-08T02:46:59.968Z,76.65
2022-12-08T02:49:34.595Z,76.95
2022-12-08T02:52:13.933Z,76.61
2022-12-08T02:55:06.742Z,76.81
2022-12-08T02:57:46.124Z,76.74
2022-12-08T03:00:19.601Z,77.12
2022-12-08T03:03:27.187Z,76.98
2022-12-08T03:06:22.049Z,76.65
2022-12-08T03:08:55.895Z,76.30
2022-12-08T03:11:33.820Z,76.93
2022-12-08T03:14:07.582Z,76.66
2022-12-08T03:16:41.931Z,76.27
2022-12-08T03:19:38.248Z,76.37
2022-12-08T03:22:11.394Z,75.94
2022-12-08T03:24:44.622Z,76.43
2022-12-08T03:27:25.872Z,76.28
2022-12-08T03:29:58.103Z,75.67
2022-12-08T03:32:34.547Z,75.70
2022-12-08T03:35:11.785Z,76.25
2022-12-08T03:37:43.371Z,75.61
2022-12-08T03:40:17.320Z,76.02
2022-12-08T03:42:46.976Z,76.08
2022-12-08T03:45:17.148Z,75.98
2022-12-08T03:47:47.446Z,75.51
2022-12-08T03:50:17.602Z,75.35
2022-12-08T03:52:47.805Z,75.00
2022-12-08T03:55:17.953Z,75.03
2022-12-08T03:57:47.717Z,75.48
2022-12-08T04:00:18.156Z,74.88
2022-12-08T04:02:48.248Z,74.97
2022-12-08T04:05:18.422Z,74.99
2022-12-08T04:07:48.653Z,74.59
2022-12-08T04:10:18.772Z,75.02
2022-12-08T04:12:48.808Z,75.33
2022-12-08T04:15:17.664Z,74.49
2022-12-08T04:17:48.686Z,74.97
2022-12-08T04:20:18.752Z,75.05
2022-12-08T04:22:47.859Z,75.09
2022-12-08T04:25:17.951Z,75.06
2022-12-08T04:27:48.004Z,75.24
2022-12-08T04:30:18.203Z,75.11
2022-12-08T04:32:48.342Z,74.60
2022-12-08T04:35:18.404Z,74.96
2022-12-08T04:37:48.682Z,75.28
2022-12-08T04:40:18.996Z,75.31
2022-12-08T04:42:49.010Z,75.15
2022-12-08T04:45:19.210Z,75.42
2022-12-08T04:47:48.120Z,75.58
2022-12-08T04:50:19.736Z,75.55
2022-12-08T04:52:50.060Z,75.65
2022-12-08T04:55:20.120Z,75.45
2022-12-08T04:57:49.858Z,75.64
2022-12-08T05:00:19.931Z,76.05
2022-12-08T05:02:50.087Z,75.78
2022-12-08T05:05:20.177Z,76.06
2022-12-08T05:07:50.419Z,76.44
2022-12-08T05:10:19.415Z,76.07
2022-12-08T05:12:49.456Z,76.14
2022-12-08T05:15:19.613Z,75.88
2022-12-08T05:17:49.725Z,76.30
2022-12-08T05:20:18.769Z,76.21
2022-12-08T05:22:48.918Z,76.61
2022-12-08T05:25:18.002Z,76.40
2022-12-08T05:27:48.024Z,76.40
2022-12-08T05:30:18.531Z,76.37
2022-12-08T05:32:48.811Z,76.17
2022-12-08T05:35:18.941Z,76.49
2022-12-08T05:37:48.991Z,76.18
2022-12-08T05:40:19.353Z,76.75
2022-12-08T05:42:49.681Z,76.50
2022-12-08T05:45:19.935Z,76.88
2022-12-08T05:47:50.425Z,76.57
2022-12-08T05:50:20.687Z,76.57
2022-12-08T05:52:50.667Z,76.97
2022-12-08T05:55:20.959Z,76.24
2022-12-08T05:57:51.395Z,76.19
2022-12-08T06:00:22.565Z,76.57
2022-12-08T06:02:52.153Z,76.79
2022-12-08T06:05:22.503Z,76.92
2022-12-08T06:07:52.918Z,76.86
2022-12-08T06:10:22.993Z,76.94
2022-12-08T06:12:53.379Z,76.89
2022-12-08T06:15:23.674Z,77.33
2022-12-08T06:17:53.740Z,77.36
2022-12-08T06:20:24.064Z,77.37
2022-12-08T06:22:55.897Z,77.38
2022-12-08T06:25:26.329Z,77.07
2022-12-08T06:27:56.328Z,77.39
2022-12-08T06:30:27.754Z,77.92
2022-12-08T06:32:58.196Z,77.95
2022-12-08T06:35:28.144Z,77.87
2022-12-08T06:37:58.281Z,78.42
2022-12-08T06:40:28.745Z,78.51
2022-12-08T06:43:00.641Z,78.53
2022-12-08T06:45:30.447Z,78.22
2022-12-08T06:48:03.148Z,77.97
2022-12-08T06:50:35.464Z,78.58
2022-12-08T06:53:05.884Z,78.36
2022-12-08T06:55:58.900Z,78.57
2022-12-08T06:58:27.906Z,79.10
2022-12-08T07:00:58.545Z,78.74
2022-12-08T07:03:28.987Z,79.21
2022-12-08T07:06:04.062Z,78.86
2022-12-08T07:08:35.418Z,79.21
2022-12-08T07:11:09.854Z,78.59
2022-12-08T07:13:40.198Z,78.80
2022-12-08T07:16:10.643Z,78.83
2022-12-08T07:18:40.444Z,78.88
2022-12-08T07:21:12.531Z,79.41
2022-12-08T07:23:43.370Z,79.05
2022-12-08T07:26:14.379Z,79.05
2022-12-08T07:28:44.800Z,79.47
2022-12-08T07:31:26.092Z,79.39
2022-12-08T07:33:57.949Z,79.62
2022-12-08T07:36:28.148Z,79.51
2022-12-08T07:39:00.471Z,79.71
2022-12-08T07:41:30.729Z,79.50
2022-12-08T07:44:01.197Z,79.19
2022-12-08T07:46:31.738Z,79.48
2022-12-08T07:49:02.125Z,79.60
2022-12-08T07:51:32.648Z,79.83
2022-12-08T07:54:02.955Z,79.89
2022-12-08T07:56:32.013Z,79.99
2022-12-08T07:59:03.158Z,80.08
2022-12-08T08:01:35.253Z,80.10
2022-12-08T08:04:06.687Z,79.90
2022-12-08T08:06:36.714Z,79.80
2022-12-08T08:09:06.900Z,80.47
2022-12-08T08:11:36.666Z,80.11
2022-12-08T08:14:06.440Z,79.90
2022-12-08T08:16:38.619Z,80.00
2022-12-08T08:19:09.138Z,79.76
2022-12-08T08:21:46.627Z,79.84
2022-12-08T08:24:18.148Z,79.42
2022-12-08T08:26:47.101Z,79.83
2022-12-08T08:29:18.225Z,79.53
2022-12-08T08:31:48.997Z,79.68
2022-12-08T08:34:19.420Z,79.48
2022-12-08T08:36:48.685Z,79.26
2022-12-08T08:39:19.276Z,79.07
2022-12-08T08:41:49.269Z,78.86
2022-12-08T08:44:20.021Z,78.71
2022-12-08T08:46:50.482Z,79.41
2022-12-08T08:49:21.032Z,79.07
2022-12-08T08:51:52.341Z,78.86
2022-12-08T08:54:22.794Z,78.88
2022-12-08T08:56:53.303Z,78.64
2022-12-08T08:59:23.503Z,78.80
2022-12-08T09:01:54.051Z,79.12
2022-12-08T09:04:24.726Z,79.04
2022-12-08T09:06:54.775Z,78.56
2022-12-08T09:09:24.858Z,78.38
2022-12-08T09:11:56.065Z,77.83
2022-12-08T09:14:26.306Z,77.67
2022-12-08T09:16:56.430Z,78.06
2022-12-08T09:19:26.586Z,78.32
2022-12-08T09:21:56.709Z,78.24
2022-12-08T09:24:27.160Z,77.87
2022-12-08T09:26:57.443Z,77.20
2022-12-08T09:29:31.079Z,76.91
2022-12-08T09:32:05.202Z,76.34
2022-12-08T09:34:35.905Z,76.08
2022-12-08T09:37:06.746Z,76.09
2022-12-08T09:39:36.838Z,75.97
2022-12-08T09:42:07.856Z,76.19
2022-12-08T09:44:41.594Z,76.17
2022-12-08T09:47:35.987Z,76.12
2022-12-08T09:50:32.095Z,75.82
2022-12-08T09:53:15.512Z,74.84
2022-12-08T09:56:06.621Z,75.70
2022-12-08T09:58:50.751Z,76.02
2022-12-08T10:01:23.390Z,76.20
2022-12-08T10:03:55.307Z,76.65
2022-12-08T10:06:32.237Z,76.72
2022-12-08T10:09:12.582Z,76.97
2022-12-08T10:12:01.313Z,77.26
2022-12-08T10:14:52.646Z,77.31
2022-12-08T10:17:28.324Z,77.30
2022-12-08T10:20:14.163Z,77.10
2022-12-08T10:22:47.032Z,76.69
2022-12-08T10:25:31.596Z,76.96
2022-12-08T10:28:01.762Z,77.27
2022-12-08T10:30:32.876Z,77.15
2022-12-08T10:33:03.352Z,77.06
2022-12-08T10:35:56.579Z,77.74
2022-12-08T10:38:34.580Z,77.49
2022-12-08T10:41:18.440Z,77.18
2022-12-08T10:43:58.565Z,76.69
2022-12-08T10:46:30.603Z,76.45
2022-12-08T10:49:06.352Z,76.25
2022-12-08T10:51:39.595Z,76.13
2022-12-08T10:54:33.564Z,76.32
2022-12-08T10:57:05.936Z,76.41
2022-12-08T10:59:36.363Z,76.38
2022-12-08T11:02:19.107Z,76.24
2022-12-08T11:05:01.404Z,76.23
2022-12-08T11:07:32.595Z,76.03
2022-12-08T11:10:03.493Z,76.09
2022-12-08T11:12:33.888Z,76.34
2022-12-08T11:15:05.755Z,76.58
2022-12-08T11:17:45.512Z,76.99
2022-12-08T11:20:16.618Z,76.85
2022-12-08T11:22:55.654Z,76.96
2022-12-08T11:25:27.523Z,76.95
2022-12-08T11:28:02.398Z,76.99
2022-12-08T11:30:39.579Z,77.08
2022-12-08T11:33:16.341Z,77.17
2022-12-08T11:35:54.625Z,77.10
2022-12-08T11:38:26.751Z,77.09
2022-12-08T11:41:15.545Z,76.70
2022-12-08T11:44:11.175Z,76.66
2022-12-08T11:47:02.983Z,76.93
2022-12-08T11:49:40.296Z,77.16
2022-12-08T11:52:25.200Z,77.26
2022-12-08T11:55:20.003Z,77.82
2022-12-08T11:57:52.278Z,77.98
2022-12-08T12:00:22.499Z,78.13
2022-12-08T12:03:05.133Z,77.95
2022-12-08T12:06:18.502Z,78.19
2022-12-08T12:09:38.947Z,78.21
2022-12-08T12:12:53.720Z,78.31
2022-12-08T12:15:43.188Z,78.44
2022-12-08T12:18:32.967Z,78.46
2022-12-08T12:21:11.963Z,78.48
2022-12-08T12:23:48.517Z,78.47
2022-12-08T12:26:39.291Z,78.66
2022-12-08T12:29:18.250Z,78.81
2022-12-08T12:32:02.573Z,79.02
2022-12-08T12:34:52.609Z,78.89
2022-12-08T12:37:37.433Z,78.84
2022-12-08T12:40:20.903Z,78.57
2022-12-08T12:42:56.474Z,78.69
2022-12-08T12:45:35.030Z,78.63
2022-12-08T12:48:06.003Z,78.52
2022-12-08T12:50:42.843Z,78.71
2022-12-08T12:53:19.471Z,78.73
2022-12-08T12:55:55.934Z,78.68
2022-12-08T12:58:31.873Z,78.76
2022-12-08T13:01:35.206Z,78.73
2022-12-08T13:04:08.254Z,78.88
2022-12-08T13:06:49.934Z,79.06
2022-12-08T13:09:37.372Z,78.96
2022-12-08T13:12:13.259Z,78.89
2022-12-08T13:14:51.522Z,79.32
2022-12-08T13:17:31.286Z,79.48
2022-12-08T13:20:05.783Z,79.70
2022-12-08T13:23:02.948Z,79.86
2022-12-08T13:25:48.410Z,79.79
2022-12-08T13:28:28.937Z,79.99
2022-12-08T13:31:01.278Z,80.10
2022-12-08T13:33:40.250Z,80.06
2022-12-08T13:36:27.288Z,80.12
2022-12-08T13:38:59.418Z,80.00
2022-12-08T13:41:53.988Z,79.99
2022-12-08T13:45:18.719Z,79.78
2022-12-08T13:47:59.579Z,79.99
2022-12-08T13:54:48.516Z,80.15
2022-12-08T13:57:02.398Z,80.19
2022-12-08T13:59:28.952Z,80.43
2022-12-08T14:02:35.512Z,80.40
2022-12-08T14:05:34.865Z,80.48
2022-12-08T14:07:57.642Z,80.52
2022-12-08T14:10:32.410Z,80.59
2022-12-08T14:13:07.175Z,80.56
2022-12-08T14:15:39.462Z,80.84
2022-12-08T14:18:28.117Z,80.77
2022-12-08T14:21:22.382Z,80.68
2022-12-08T14:23:54.163Z,80.90
2022-12-08T14:26:24.511Z,80.87
2022-12-08T14:29:36.667Z,80.92
2022-12-08T14:32:40.134Z,80.72
2022-12-08T14:35:10.872Z,80.63
2022-12-08T14:37:46.950Z,80.66
2022-12-08T14:40:23.026Z,80.65
2022-12-08T14:43:20.227Z,80.68
2022-12-08T14:45:53.726Z,80.82
2022-12-08T14:48:43.311Z,80.70
2022-12-08T14:51:27.920Z,80.64
2022-12-08T14:54:09.534Z,80.91
2022-12-08T14:56:50.832Z,80.87
2022-12-08T14:59:27.703Z,80.90
2022-12-08T15:02:26.466Z,80.98
2022-12-08T15:04:59.360Z,81.19
2022-12-08T15:07:52.212Z,80.92
2022-12-08T15:10:36.039Z,81.01
2022-12-08T15:13:12.540Z,80.76
2022-12-08T15:15:49.448Z,80.85
2022-12-08T15:18:29.952Z,81.04
2022-12-08T15:21:08.500Z,80.66
2022-12-08T15:23:50.709Z,80.85
2022-12-08T15:26:26.084Z,80.87
2022-12-08T15:28:56.548Z,80.55
2022-12-08T15:31:27.133Z,80.61
2022-12-08T15:33:57.453Z,80.56
2022-12-08T15:36:27.478Z,80.61
2022-12-08T15:38:57.565Z,80.35
2022-12-08T15:41:27.981Z,80.40
2022-12-08T15:43:58.435Z,80.36
2022-12-08T15:46:28.940Z,80.35
2022-12-08T15:48:59.115Z,80.38
2022-12-08T15:51:31.466Z,80.39
2022-12-08T15:54:01.534Z,80.45
2022-12-08T15:56:34.222Z,80.37
2022-12-08T15:59:03.652Z,80.18
2022-12-08T16:01:34.119Z,80.12
2022-12-08T16:07:21.312Z,80.05
2022-12-08T16:09:49.987Z,80.64
2022-12-08T16:13:34.052Z,80.40
2022-12-08T16:16:00.225Z,80.50
2022-12-08T16:18:32.453Z,80.49
2022-12-08T16:21:12.348Z,80.52
2022-12-08T16:23:53.594Z,80.42
2022-12-08T16:29:20.829Z,80.32
2022-12-08T16:31:52.215Z,80.07
2022-12-08T16:34:22.693Z,79.96
2022-12-08T16:36:52.800Z,80.23
2022-12-08T16:39:22.945Z,80.17
2022-12-08T16:42:13.036Z,80.01
2022-12-08T16:44:44.014Z,80.03
2022-12-08T16:47:14.797Z,80.12
2022-12-08T16:49:45.595Z,79.84
2022-12-08T16:52:18.129Z,79.72
2022-12-08T16:54:48.654Z,79.75
2022-12-08T16:57:19.491Z,79.82
2022-12-08T16:59:48.607Z,79.73
2022-12-08T17:02:18.935Z,79.62
2022-12-08T17:04:49.142Z,79.22
2022-12-08T17:07:19.528Z,79.29
2022-12-08T17:09:49.992Z,79.43
2022-12-08T17:12:20.686Z,79.53
2022-12-08T17:14:51.420Z,79.51
2022-12-08T17:17:21.200Z,79.43
2022-12-08T17:19:51.199Z,79.23
2022-12-08T17:22:21.685Z,79.18
2022-12-08T17:24:52.582Z,79.21
2022-12-08T17:27:23.064Z,79.35
2022-12-08T17:29:53.349Z,79.52
2022-12-08T17:32:23.394Z,79.39
2022-12-08T17:34:53.617Z,79.57
2022-12-08T17:37:23.606Z,79.49
2022-12-08T17:39:53.709Z,79.47
2022-12-08T17:42:26.403Z,79.81
2022-12-08T17:44:56.526Z,79.70
2022-12-08T17:47:26.832Z,79.65
2022-12-08T17:49:57.060Z,79.73
2022-12-08T17:52:27.736Z,79.75
2022-12-08T17:54:57.922Z,79.64
2022-12-08T17:57:28.014Z,79.74
2022-12-08T17:59:57.084Z,79.80
2022-12-08T18:02:27.309Z,79.99
2022-12-08T18:04:57.093Z,80.18
2022-12-08T18:07:27.216Z,80.05
2022-12-08T18:09:57.387Z,80.08
2022-12-08T18:12:27.526Z,80.02
2022-12-08T18:14:56.617Z,80.18
2022-12-08T18:17:26.647Z,80.38
2022-12-08T18:19:57.127Z,80.33
2022-12-08T18:22:27.518Z,80.53
2022-12-08T18:25:00.664Z,80.69
2022-12-08T18:27:30.681Z,80.84
2022-12-08T18:30:02.381Z,80.59
2022-12-08T18:32:32.431Z,80.74
2022-12-08T18:35:02.711Z,80.92
2022-12-08T18:37:32.358Z,80.82
2022-12-08T18:40:02.609Z,80.73
2022-12-08T18:42:32.865Z,80.66
2022-12-08T18:45:07.545Z,80.73
2022-12-08T18:47:41.100Z,81.01
2022-12-08T18:50:13.121Z,80.99
2022-12-08T18:52:43.762Z,80.92
2022-12-08T18:55:15.039Z,80.82
2022-12-08T18:57:44.700Z,80.83
2022-12-08T19:00:19.065Z,80.93
2022-12-08T19:02:50.000Z,81.10
2022-12-08T19:05:20.844Z,81.33
2022-12-08T19:07:52.614Z,81.44
2022-12-08T19:10:21.742Z,81.30
2022-12-08T19:12:52.898Z,81.37
2022-12-08T19:15:23.225Z,81.19
2022-12-08T19:17:52.099Z,81.04
2022-12-08T19:20:22.163Z,81.25
2022-12-08T19:22:52.161Z,81.23
2022-12-08T19:25:22.479Z,81.55
2022-12-08T19:27:53.019Z,81.59
2022-12-08T19:30:23.123Z,81.48
2022-12-08T19:32:53.146Z,81.38
2022-12-08T19:35:23.231Z,81.42
2022-12-08T19:37:55.229Z,81.49
2022-12-08T19:40:46.378Z,81.43
2022-12-08T19:43:40.462Z,81.34
2022-12-08T19:46:11.910Z,81.41
2022-12-08T19:48:42.703Z,81.02
2022-12-08T19:51:13.260Z,81.20
2022-12-08T19:53:47.535Z,81.39
2022-12-08T19:56:19.324Z,81.66
2022-12-08T19:58:48.215Z,81.93
2022-12-08T20:01:20.322Z,81.78
2022-12-08T20:03:50.676Z,81.39
2022-12-08T20:06:21.344Z,81.52
2022-12-08T20:08:52.801Z,81.63
2022-12-08T20:11:23.993Z,81.94
2022-12-08T20:13:52.893Z,82.24
2022-12-08T20:16:24.635Z,82.39
2022-12-08T20:18:54.672Z,82.14
2022-12-08T20:21:24.859Z,82.43
2022-12-08T20:23:55.222Z,82.34
2022-12-08T20:26:25.792Z,82.40
2022-12-08T20:28:54.673Z,82.48
2022-12-08T20:31:28.067Z,82.50
2022-12-08T20:33:58.657Z,82.17
2022-12-08T20:36:29.449Z,82.23
2022-12-08T20:38:59.554Z,82.26
2022-12-08T20:41:30.456Z,82.26
2022-12-08T20:44:05.651Z,81.83
2022-12-08T20:46:36.137Z,81.75
2022-12-08T20:49:08.789Z,81.84
2022-12-08T20:51:39.239Z,82.02
2022-12-08T20:54:11.503Z,82.09
2022-12-08T20:56:47.929Z,82.00
2022-12-08T20:59:18.395Z,81.65
2022-12-08T21:01:49.671Z,81.90
2022-12-08T21:04:21.311Z,81.87
2022-12-08T21:06:51.550Z,82.01
2022-12-08T21:09:22.003Z,82.19
2022-12-08T21:11:52.577Z,82.15
2022-12-08T21:14:21.692Z,81.74
2022-12-08T21:16:55.111Z,81.71
2022-12-08T21:19:25.465Z,81.48
2022-12-08T21:21:56.142Z,81.33
2022-12-08T21:24:30.380Z,81.60
2022-12-08T21:27:04.861Z,81.78
2022-12-08T21:29:34.925Z,82.01
2022-12-08T21:32:05.233Z,81.90
2022-12-08T21:34:35.840Z,81.82
2022-12-08T21:37:06.469Z,82.06
2022-12-08T21:39:38.284Z,81.96
2022-12-08T21:42:33.712Z,82.11
2022-12-08T21:45:04.575Z,82.00
2022-12-08T21:47:34.133Z,81.82
2022-12-08T21:50:05.707Z,82.01
2022-12-08T21:52:43.995Z,81.72
2022-12-08T21:55:16.362Z,82.12
2022-12-08T21:57:47.119Z,82.25
2022-12-08T22:00:18.171Z,82.24
2022-12-08T22:02:48.466Z,82.16
2022-12-08T22:05:19.003Z,82.05
2022-12-08T22:07:51.376Z,82.02
2022-12-08T22:10:21.787Z,81.99
2022-12-08T22:12:51.994Z,82.05
2022-12-08T22:15:22.128Z,82.27
2022-12-08T22:17:51.295Z,81.84
2022-12-08T22:20:21.676Z,81.97
2022-12-08T22:22:51.244Z,81.96
2022-12-08T22:25:21.474Z,81.64
2022-12-08T22:27:51.697Z,81.58
2022-12-08T22:30:22.113Z,81.88
2022-12-08T22:32:52.990Z,82.05
2022-12-08T22:35:23.247Z,82.09
2022-12-08T22:37:53.533Z,82.32
2022-12-08T22:40:23.757Z,82.50
2022-12-08T22:42:54.237Z,82.47
2022-12-08T22:45:24.758Z,82.30
2022-12-08T22:47:55.065Z,81.93
2022-12-08T22:50:25.103Z,81.94
2022-12-08T22:52:55.142Z,82.31
2022-12-08T22:55:25.350Z,82.49
2022-12-08T22:57:55.882Z,82.71
2022-12-08T23:00:25.048Z,83.09
2022-12-08T23:02:55.280Z,83.32
2022-12-08T23:05:25.502Z,83.50
2022-12-08T23:07:55.736Z,83.54
2022-12-08T23:10:25.902Z,83.72
2022-12-08T23:13:02.178Z,84.28
2022-12-08T23:15:34.197Z,84.49
2022-12-08T23:18:05.009Z,84.91
2022-12-08T23:20:35.321Z,84.75
2022-12-08T23:23:05.846Z,85.28
2022-12-08T23:25:40.983Z,85.17
2022-12-08T23:28:11.425Z,84.91
2022-12-08T23:30:43.080Z,85.23
2022-12-08T23:33:15.361Z,85.10
2022-12-08T23:35:45.805Z,85.41
2022-12-08T23:38:16.412Z,85.26
2022-12-08T23:40:45.459Z,85.50
2022-12-08T23:43:16.465Z,85.45
2022-12-08T23:45:47.619Z,85.68
2022-12-08T23:48:18.090Z,85.68
2022-12-08T23:50:47.102Z,85.59
2022-12-08T23:53:17.593Z,85.83
2022-12-08T23:55:48.053Z,85.66
2022-12-08T23:58:18.290Z,85.69
